sensor_id;sensor_type;location;lat;lon;timestamp;pressure;altitude;pressure_sealevel;temperature;humidity
40918;BME280;26644;50.248;19.032;2023-03-21T00:00:21;98083.81;;;10.18;79.74
40918;BME280;26644;50.248;19.032;2023-03-21T00:03:26;98080.53;;;10.16;79.45
40918;BME280;26644;50.248;19.032;2023-03-21T00:06:32;98081.66;;;10.15;79.56
40918;BME280;26644;50.248;19.032;2023-03-21T00:09:37;98086.28;;;10.15;79.47
40918;BME280;26644;50.248;19.032;2023-03-21T00:12:42;98078.94;;;10.10;79.63
40918;BME280;26644;50.248;19.032;2023-03-21T00:15:53;98080.56;;;10.11;79.74
40918;BME280;26644;50.248;19.032;2023-03-21T00:18:58;98076.72;;;10.12;80.01
40918;BME280;26644;50.248;19.032;2023-03-21T00:22:03;98061.69;;;10.04;80.09
40918;BME280;26644;50.248;19.032;2023-03-21T00:25:09;98075.63;;;10.13;80.29
40918;BME280;26644;50.248;19.032;2023-03-21T00:28:14;98055.09;;;10.05;79.95
40918;BME280;26644;50.248;19.032;2023-03-21T00:31:22;98066.84;;;10.11;79.97
40918;BME280;26644;50.248;19.032;2023-03-21T00:34:28;98068.22;;;10.08;80.31
40918;BME280;26644;50.248;19.032;2023-03-21T00:37:34;98069.34;;;10.07;80.31
40918;BME280;26644;50.248;19.032;2023-03-21T00:40:39;98064.72;;;10.03;80.24
40918;BME280;26644;50.248;19.032;2023-03-21T00:43:45;98071.84;;;10.04;80.48
40918;BME280;26644;50.248;19.032;2023-03-21T00:46:52;98074.59;;;10.04;80.62
40918;BME280;26644;50.248;19.032;2023-03-21T00:49:57;98068.53;;;10.02;80.69
40918;BME280;26644;50.248;19.032;2023-03-21T00:53:02;98064.44;;;9.99;80.71
40918;BME280;26644;50.248;19.032;2023-03-21T00:56:08;98070.47;;;10.01;81.25
40918;BME280;26644;50.248;19.032;2023-03-21T00:59:13;98070.47;;;10.01;81.29
40918;BME280;26644;50.248;19.032;2023-03-21T01:02:21;98075.41;;;9.99;81.31
40918;BME280;26644;50.248;19.032;2023-03-21T01:05:28;98072.97;;;9.98;81.66
40918;BME280;26644;50.248;19.032;2023-03-21T01:08:48;98072.47;;;9.90;81.54
40918;BME280;26644;50.248;19.032;2023-03-21T01:11:53;98068.13;;;9.84;81.70
40918;BME280;26644;50.248;19.032;2023-03-21T01:14:58;98068.41;;;9.83;81.93
40918;BME280;26644;50.248;19.032;2023-03-21T01:18:05;98072.25;;;9.82;82.12
40918;BME280;26644;50.248;19.032;2023-03-21T01:21:13;98055.84;;;9.71;82.11
40918;BME280;26644;50.248;19.032;2023-03-21T01:24:18;98067.06;;;9.75;82.28
40918;BME280;26644;50.248;19.032;2023-03-21T01:27:24;98069.81;;;9.75;82.19
40918;BME280;26644;50.248;19.032;2023-03-21T01:30:28;98068.16;;;9.74;82.69
40918;BME280;26644;50.248;19.032;2023-03-21T01:33:37;98056.41;;;9.73;82.33
40918;BME280;26644;50.248;19.032;2023-03-21T01:36:42;98061.59;;;9.75;82.41
40918;BME280;26644;50.248;19.032;2023-03-21T01:39:52;98041.41;;;9.55;81.71
40918;BME280;26644;50.248;19.032;2023-03-21T01:42:57;98047.16;;;9.59;82.50
40918;BME280;26644;50.248;19.032;2023-03-21T01:50:06;98057.28;;;9.64;82.20
40918;BME280;26644;50.248;19.032;2023-03-21T01:53:21;98056.75;;;9.61;82.21
40918;BME280;26644;50.248;19.032;2023-03-21T01:56:34;98039.81;;;9.49;82.15
40918;BME280;26644;50.248;19.032;2023-03-21T01:59:49;98051.28;;;9.56;82.13
40918;BME280;26644;50.248;19.032;2023-03-21T02:03:20;98057.06;;;9.50;82.23
40918;BME280;26644;50.248;19.032;2023-03-21T02:06:45;98050.50;;;9.45;82.41
40918;BME280;26644;50.248;19.032;2023-03-21T02:10:09;98050.50;;;9.45;83.05
40918;BME280;26644;50.248;19.032;2023-03-21T02:13:20;98037.09;;;9.44;82.56
40918;BME280;26644;50.248;19.032;2023-03-21T02:16:38;98040.63;;;9.50;82.46
40918;BME280;26644;50.248;19.032;2023-03-21T02:20:16;98038.72;;;9.50;82.28
40918;BME280;26644;50.248;19.032;2023-03-21T02:27:36;98022.63;;;9.38;82.15
40918;BME280;26644;50.248;19.032;2023-03-21T02:31:15;98042.88;;;9.42;83.28
40918;BME280;26644;50.248;19.032;2023-03-21T02:34:53;98036.84;;;9.40;82.90
40918;BME280;26644;50.248;19.032;2023-03-21T02:38:26;98036.34;;;9.33;83.07
40918;BME280;26644;50.248;19.032;2023-03-21T02:41:47;98045.41;;;9.23;83.59
40918;BME280;26644;50.248;19.032;2023-03-21T02:45:14;98045.97;;;9.20;84.00
40918;BME280;26644;50.248;19.032;2023-03-21T02:48:35;98054.75;;;9.17;84.14
40918;BME280;26644;50.248;19.032;2023-03-21T02:51:45;98058.03;;;9.14;84.40
40918;BME280;26644;50.248;19.032;2023-03-21T02:54:59;98047.38;;;9.07;84.34
40918;BME280;26644;50.248;19.032;2023-03-21T02:58:22;98053.69;;;9.03;84.55
40918;BME280;26644;50.248;19.032;2023-03-21T03:01:33;98051.25;;;9.01;85.22
40918;BME280;26644;50.248;19.032;2023-03-21T03:04:39;98049.03;;;9.03;84.85
40918;BME280;26644;50.248;19.032;2023-03-21T03:07:57;98046.00;;;9.05;84.70
40918;BME280;26644;50.248;19.032;2023-03-21T03:11:24;98039.75;;;8.99;85.07
40918;BME280;26644;50.248;19.032;2023-03-21T03:14:46;98028.50;;;8.90;85.41
40918;BME280;26644;50.248;19.032;2023-03-21T03:18:08;98040.56;;;9.00;85.43
40918;BME280;26644;50.248;19.032;2023-03-21T03:21:23;98045.50;;;9.03;85.30
40918;BME280;26644;50.248;19.032;2023-03-21T03:24:41;98043.56;;;9.03;84.86
40918;BME280;26644;50.248;19.032;2023-03-21T03:28:02;98038.66;;;9.00;84.69
40918;BME280;26644;50.248;19.032;2023-03-21T03:31:13;98033.19;;;8.95;85.46
40918;BME280;26644;50.248;19.032;2023-03-21T03:34:32;98032.91;;;8.97;84.75
40918;BME280;26644;50.248;19.032;2023-03-21T03:37:49;98029.06;;;8.92;84.75
40918;BME280;26644;50.248;19.032;2023-03-21T03:41:01;98023.31;;;8.89;84.70
40918;BME280;26644;50.248;19.032;2023-03-21T03:44:23;98023.31;;;8.89;84.82
40918;BME280;26644;50.248;19.032;2023-03-21T03:47:39;98026.88;;;8.89;84.91
40918;BME280;26644;50.248;19.032;2023-03-21T03:50:54;98025.53;;;8.87;85.27
40918;BME280;26644;50.248;19.032;2023-03-21T03:54:24;98035.09;;;8.94;85.51
40918;BME280;26644;50.248;19.032;2023-03-21T03:57:35;98035.34;;;8.98;85.27
40918;BME280;26644;50.248;19.032;2023-03-21T04:00:43;98035.91;;;9.00;85.08
40918;BME280;26644;50.248;19.032;2023-03-21T04:03:49;98026.34;;;8.98;84.81
40918;BME280;26644;50.248;19.032;2023-03-21T04:06:54;98040.03;;;8.98;84.98
40918;BME280;26644;50.248;19.032;2023-03-21T04:10:01;98038.09;;;8.98;84.37
40918;BME280;26644;50.248;19.032;2023-03-21T04:13:13;98038.38;;;9.02;84.58
40918;BME280;26644;50.248;19.032;2023-03-21T04:16:44;98033.47;;;8.99;83.91
40918;BME280;26644;50.248;19.032;2023-03-21T04:19:49;98039.47;;;8.95;84.78
40918;BME280;26644;50.248;19.032;2023-03-21T04:22:57;98040.31;;;8.96;84.78
40918;BME280;26644;50.248;19.032;2023-03-21T04:26:03;98025.81;;;8.85;84.19
40918;BME280;26644;50.248;19.032;2023-03-21T04:29:17;98038.66;;;8.95;84.50
40918;BME280;26644;50.248;19.032;2023-03-21T04:32:48;98035.34;;;8.93;84.55
40918;BME280;26644;50.248;19.032;2023-03-21T04:35:55;98036.72;;;8.95;84.43
40918;BME280;26644;50.248;19.032;2023-03-21T04:39:04;98017.03;;;8.88;83.93
40918;BME280;26644;50.248;19.032;2023-03-21T04:42:13;98037.28;;;8.98;83.66
40918;BME280;26644;50.248;19.032;2023-03-21T04:45:19;98038.66;;;8.95;84.11
40918;BME280;26644;50.248;19.032;2023-03-21T04:48:27;98036.72;;;8.90;83.35
40918;BME280;26644;50.248;19.032;2023-03-21T04:51:35;98030.44;;;8.90;83.83
40918;BME280;26644;50.248;19.032;2023-03-21T04:54:45;98028.53;;;8.85;83.65
40918;BME280;26644;50.248;19.032;2023-03-21T04:57:50;98023.63;;;8.77;84.07
40918;BME280;26644;50.248;19.032;2023-03-21T05:00:56;98024.97;;;8.74;84.32
40918;BME280;26644;50.248;19.032;2023-03-21T05:04:05;98017.63;;;8.65;84.07
40918;BME280;26644;50.248;19.032;2023-03-21T05:07:11;98014.63;;;8.56;84.98
40918;BME280;26644;50.248;19.032;2023-03-21T05:10:16;98016.84;;;8.54;85.35
40918;BME280;26644;50.248;19.032;2023-03-21T05:13:22;98038.16;;;8.62;85.26
40918;BME280;26644;50.248;19.032;2023-03-21T05:16:27;98028.31;;;8.61;84.78
40918;BME280;26644;50.248;19.032;2023-03-21T05:19:35;98035.72;;;8.55;85.10
40918;BME280;26644;50.248;19.032;2023-03-21T05:22:41;98012.47;;;8.42;84.87
40918;BME280;26644;50.248;19.032;2023-03-21T05:25:49;98034.34;;;8.42;84.96
40918;BME280;26644;50.248;19.032;2023-03-21T05:29:09;98037.91;;;8.38;85.14
40918;BME280;26644;50.248;19.032;2023-03-21T05:32:16;98032.16;;;8.29;85.55
40918;BME280;26644;50.248;19.032;2023-03-21T05:35:24;98051.31;;;8.39;85.80
40918;BME280;26644;50.248;19.032;2023-03-21T05:38:33;98054.34;;;8.38;85.39
40918;BME280;26644;50.248;19.032;2023-03-21T05:41:38;98055.94;;;8.44;85.66
40918;BME280;26644;50.248;19.032;2023-03-21T05:44:47;98058.97;;;8.53;85.53
40918;BME280;26644;50.248;19.032;2023-03-21T05:47:57;98042.00;;;8.56;85.37
40918;BME280;26644;50.248;19.032;2023-03-21T05:51:10;98048.81;;;8.74;84.83
40918;BME280;26644;50.248;19.032;2023-03-21T05:54:16;98053.69;;;8.87;84.82
40918;BME280;26644;50.248;19.032;2023-03-21T05:57:23;98057.81;;;9.00;84.15
40918;BME280;26644;50.248;19.032;2023-03-21T06:00:34;98058.91;;;9.04;84.00
40918;BME280;26644;50.248;19.032;2023-03-21T06:03:53;98046.56;;;9.07;83.63
40918;BME280;26644;50.248;19.032;2023-03-21T06:07:03;98052.56;;;9.09;83.70
40918;BME280;26644;50.248;19.032;2023-03-21T06:10:10;98050.94;;;9.08;83.63
40918;BME280;26644;50.248;19.032;2023-03-21T06:13:19;98058.03;;;9.19;83.26
40918;BME280;26644;50.248;19.032;2023-03-21T06:16:25;98054.19;;;9.20;82.80
40918;BME280;26644;50.248;19.032;2023-03-21T06:19:29;98047.91;;;9.20;82.46
40918;BME280;26644;50.248;19.032;2023-03-21T06:22:43;98041.59;;;9.19;82.66
40918;BME280;26644;50.248;19.032;2023-03-21T06:25:48;98052.25;;;9.21;82.02
40918;BME280;26644;50.248;19.032;2023-03-21T06:28:54;98068.38;;;9.27;82.29
40918;BME280;26644;50.248;19.032;2023-03-21T06:31:59;98066.75;;;9.32;82.52
40918;BME280;26644;50.248;19.032;2023-03-21T06:35:05;98070.56;;;9.41;82.15
40918;BME280;26644;50.248;19.032;2023-03-21T06:38:15;98061.75;;;9.49;82.17
40918;BME280;26644;50.248;19.032;2023-03-21T06:41:21;98063.63;;;9.54;81.45
40918;BME280;26644;50.248;19.032;2023-03-21T06:44:34;98077.53;;;9.68;81.21
40918;BME280;26644;50.248;19.032;2023-03-21T06:47:44;98081.66;;;9.70;80.85
40918;BME280;26644;50.248;19.032;2023-03-21T06:51:02;98088.50;;;9.73;80.66
40918;BME280;26644;50.248;19.032;2023-03-21T06:54:14;98081.38;;;9.67;80.53
40918;BME280;26644;50.248;19.032;2023-03-21T06:57:29;98088.81;;;9.61;80.43
40918;BME280;26644;50.248;19.032;2023-03-21T07:00:35;98091.28;;;9.63;80.99
40918;BME280;26644;50.248;19.032;2023-03-21T07:03:41;98098.38;;;9.69;80.88
40918;BME280;26644;50.248;19.032;2023-03-21T07:06:48;98084.69;;;9.64;80.28
40918;BME280;26644;50.248;19.032;2023-03-21T07:09:57;98085.22;;;9.66;80.23
40918;BME280;26644;50.248;19.032;2023-03-21T07:13:08;98091.50;;;9.71;80.13
40918;BME280;26644;50.248;19.032;2023-03-21T07:16:19;98100.75;;;9.81;79.81
40918;BME280;26644;50.248;19.032;2023-03-21T07:19:27;98102.19;;;9.73;79.63
40918;BME280;26644;50.248;19.032;2023-03-21T07:22:34;98104.06;;;9.83;79.77
40918;BME280;26644;50.248;19.032;2023-03-21T07:25:42;98114.44;;;9.86;79.51
40918;BME280;26644;50.248;19.032;2023-03-21T07:28:47;98115.81;;;9.83;78.55
40918;BME280;26644;50.248;19.032;2023-03-21T07:31:52;98112.28;;;9.83;79.05
40918;BME280;26644;50.248;19.032;2023-03-21T07:34:57;98116.13;;;9.82;79.27
40918;BME280;26644;50.248;19.032;2023-03-21T07:38:03;98110.09;;;9.85;79.21
40918;BME280;26644;50.248;19.032;2023-03-21T07:41:10;98114.41;;;9.96;78.88
40918;BME280;26644;50.248;19.032;2023-03-21T07:44:16;98113.28;;;10.02;78.82
40918;BME280;26644;50.248;19.032;2023-03-21T07:47:22;98110.22;;;10.09;79.00
40918;BME280;26644;50.248;19.032;2023-03-21T07:50:27;98107.97;;;10.11;78.26
40918;BME280;26644;50.248;19.032;2023-03-21T07:53:32;98117.53;;;10.19;77.86
40918;BME280;26644;50.248;19.032;2023-03-21T07:56:40;98117.25;;;10.20;78.10
40918;BME280;26644;50.248;19.032;2023-03-21T07:59:45;98119.66;;;10.27;77.84
40918;BME280;26644;50.248;19.032;2023-03-21T08:02:52;98117.19;;;10.31;77.31
40918;BME280;26644;50.248;19.032;2023-03-21T08:05:58;98123.53;;;10.26;77.34
40918;BME280;26644;50.248;19.032;2023-03-21T08:09:04;98122.13;;;10.34;77.57
40918;BME280;26644;50.248;19.032;2023-03-21T08:12:12;98113.59;;;10.35;77.52
40918;BME280;26644;50.248;19.032;2023-03-21T08:15:18;98122.06;;;10.39;77.42
40918;BME280;26644;50.248;19.032;2023-03-21T08:18:22;98129.16;;;10.45;76.71
40918;BME280;26644;50.248;19.032;2023-03-21T08:21:28;98136.81;;;10.48;77.56
40918;BME280;26644;50.248;19.032;2023-03-21T08:24:33;98125.56;;;10.50;77.35
40918;BME280;26644;50.248;19.032;2023-03-21T08:27:42;98131.88;;;10.55;77.04
40918;BME280;26644;50.248;19.032;2023-03-21T08:30:49;98119.22;;;10.54;76.71
40918;BME280;26644;50.248;19.032;2023-03-21T08:33:54;98131.25;;;10.64;75.93
40918;BME280;26644;50.248;19.032;2023-03-21T08:36:59;98135.03;;;10.68;75.03
40918;BME280;26644;50.248;19.032;2023-03-21T08:40:08;98133.31;;;10.77;75.70
40918;BME280;26644;50.248;19.032;2023-03-21T08:43:18;98126.13;;;10.81;74.97
40918;BME280;26644;50.248;19.032;2023-03-21T08:46:24;98135.06;;;10.97;74.21
40918;BME280;26644;50.248;19.032;2023-03-21T08:49:28;98131.16;;;11.03;74.17
40918;BME280;26644;50.248;19.032;2023-03-21T08:52:34;98135.22;;;11.11;73.88
40918;BME280;26644;50.248;19.032;2023-03-21T08:55:39;98129.47;;;11.07;73.65
40918;BME280;26644;50.248;19.032;2023-03-21T08:58:47;98145.47;;;11.30;73.10
40918;BME280;26644;50.248;19.032;2023-03-21T09:01:52;98141.78;;;11.39;72.88
40918;BME280;26644;50.248;19.032;2023-03-21T09:04:57;98142.31;;;11.41;70.91
40918;BME280;26644;50.248;19.032;2023-03-21T09:08:02;98144.16;;;11.46;70.71
40918;BME280;26644;50.248;19.032;2023-03-21T09:11:09;98138.09;;;11.49;70.55
40918;BME280;26644;50.248;19.032;2023-03-21T09:14:16;98148.50;;;11.52;69.63
40918;BME280;26644;50.248;19.032;2023-03-21T09:17:22;98151.56;;;11.51;69.42
40918;BME280;26644;50.248;19.032;2023-03-21T09:20:27;98152.13;;;11.48;69.27
40918;BME280;26644;50.248;19.032;2023-03-21T09:23:35;98157.16;;;11.40;69.29
40918;BME280;26644;50.248;19.032;2023-03-21T09:26:40;98155.56;;;11.34;69.32
40918;BME280;26644;50.248;19.032;2023-03-21T09:29:48;98157.91;;;11.22;69.23
40918;BME280;26644;50.248;19.032;2023-03-21T09:32:54;98161.50;;;11.17;69.50
40918;BME280;26644;50.248;19.032;2023-03-21T09:36:00;98154.16;;;11.13;69.48
40918;BME280;26644;50.248;19.032;2023-03-21T09:39:10;98163.69;;;11.20;69.57
40918;BME280;26644;50.248;19.032;2023-03-21T09:42:32;98159.00;;;11.21;69.62
40918;BME280;26644;50.248;19.032;2023-03-21T09:45:57;98165.09;;;11.18;68.99
40918;BME280;26644;50.248;19.032;2023-03-21T09:49:15;98166.25;;;11.11;68.99
40918;BME280;26644;50.248;19.032;2023-03-21T09:52:30;98174.78;;;11.10;69.13
40918;BME280;26644;50.248;19.032;2023-03-21T09:55:41;98177.22;;;11.11;68.86
40918;BME280;26644;50.248;19.032;2023-03-21T09:58:49;98154.50;;;11.06;69.36
40918;BME280;26644;50.248;19.032;2023-03-21T10:02:03;98160.28;;;11.04;69.35
40918;BME280;26644;50.248;19.032;2023-03-21T10:05:26;98169.56;;;11.08;69.01
40918;BME280;26644;50.248;19.032;2023-03-21T10:08:37;98158.34;;;11.05;68.23
40918;BME280;26644;50.248;19.032;2023-03-21T10:11:47;98151.44;;;11.07;67.89
40918;BME280;26644;50.248;19.032;2023-03-21T10:15:00;98161.09;;;11.05;68.14
40918;BME280;26644;50.248;19.032;2023-03-21T10:18:16;98169.31;;;11.05;67.84
40918;BME280;26644;50.248;19.032;2023-03-21T10:21:27;98160.75;;;11.11;67.71
40918;BME280;26644;50.248;19.032;2023-03-21T10:24:36;98162.06;;;11.19;67.22
40918;BME280;26644;50.248;19.032;2023-03-21T10:27:42;98159.56;;;11.23;67.23
40918;BME280;26644;50.248;19.032;2023-03-21T10:30:52;98153.66;;;11.35;66.20
40918;BME280;26644;50.248;19.032;2023-03-21T10:34:08;98170.91;;;11.65;65.91
40918;BME280;26644;50.248;19.032;2023-03-21T10:37:20;98173.78;;;11.78;65.31
40918;BME280;26644;50.248;19.032;2023-03-21T10:40:27;98157.47;;;11.82;64.76
40918;BME280;26644;50.248;19.032;2023-03-21T10:43:35;98161.22;;;11.91;64.08
40918;BME280;26644;50.248;19.032;2023-03-21T10:46:50;98160.56;;;12.05;63.71
40918;BME280;26644;50.248;19.032;2023-03-21T10:50:01;98162.09;;;12.11;63.40
40918;BME280;26644;50.248;19.032;2023-03-21T10:53:16;98172.00;;;12.31;62.10
40918;BME280;26644;50.248;19.032;2023-03-21T10:56:26;98165.47;;;12.46;61.07
40918;BME280;26644;50.248;19.032;2023-03-21T10:59:38;98169.19;;;12.55;59.46
40918;BME280;26644;50.248;19.032;2023-03-21T11:02:49;98152.22;;;12.48;59.63
40918;BME280;26644;50.248;19.032;2023-03-21T11:06:04;98174.88;;;12.59;59.62
40918;BME280;26644;50.248;19.032;2023-03-21T11:09:15;98162.91;;;12.50;59.61
40918;BME280;26644;50.248;19.032;2023-03-21T11:12:30;98167.91;;;12.48;59.50
40918;BME280;26644;50.248;19.032;2023-03-21T11:15:41;98158.31;;;12.45;59.26
40918;BME280;26644;50.248;19.032;2023-03-21T11:19:00;98165.03;;;12.58;59.53
40918;BME280;26644;50.248;19.032;2023-03-21T11:22:10;98169.31;;;12.64;60.04
40918;BME280;26644;50.248;19.032;2023-03-21T11:25:23;98164.63;;;12.65;59.66
40918;BME280;26644;50.248;19.032;2023-03-21T11:28:37;98159.25;;;12.73;59.86
40918;BME280;26644;50.248;19.032;2023-03-21T11:31:45;98157.09;;;12.70;59.08
40918;BME280;26644;50.248;19.032;2023-03-21T11:34:56;98155.34;;;12.60;59.85
40918;BME280;26644;50.248;19.032;2023-03-21T11:38:23;98157.59;;;12.72;60.26
40918;BME280;26644;50.248;19.032;2023-03-21T11:41:32;98145.69;;;12.77;58.72
40918;BME280;26644;50.248;19.032;2023-03-21T11:44:42;98149.78;;;12.80;58.87
40918;BME280;26644;50.248;19.032;2023-03-21T11:47:49;98156.84;;;12.86;58.38
40918;BME280;26644;50.248;19.032;2023-03-21T11:51:03;98152.16;;;12.86;57.54
40918;BME280;26644;50.248;19.032;2023-03-21T11:54:30;98153.34;;;12.80;57.81
40918;BME280;26644;50.248;19.032;2023-03-21T11:57:56;98149.16;;;12.69;58.27
40918;BME280;26644;50.248;19.032;2023-03-21T12:01:21;98156.06;;;12.47;58.58
40918;BME280;26644;50.248;19.032;2023-03-21T12:04:38;98150.88;;;12.45;59.12
40918;BME280;26644;50.248;19.032;2023-03-21T12:07:55;98151.25;;;12.39;59.99
40918;BME280;26644;50.248;19.032;2023-03-21T12:11:18;98147.22;;;12.31;60.44
40918;BME280;26644;50.248;19.032;2023-03-21T12:14:44;98145.53;;;12.16;60.48
40918;BME280;26644;50.248;19.032;2023-03-21T12:18:08;98134.88;;;12.09;60.90
40918;BME280;26644;50.248;19.032;2023-03-21T12:21:33;98135.91;;;12.14;60.79
40918;BME280;26644;50.248;19.032;2023-03-21T12:24:52;98139.28;;;12.10;60.58
40918;BME280;26644;50.248;19.032;2023-03-21T12:28:14;98133.09;;;12.00;61.11
40918;BME280;26644;50.248;19.032;2023-03-21T12:31:45;98126.28;;;11.92;60.33
40918;BME280;26644;50.248;19.032;2023-03-21T12:35:24;98127.09;;;11.92;59.00
40918;BME280;26644;50.248;19.032;2023-03-21T12:38:43;98132.03;;;11.95;58.76
40918;BME280;26644;50.248;19.032;2023-03-21T12:42:32;98123.31;;;11.88;58.08
40918;BME280;26644;50.248;19.032;2023-03-21T12:46:10;98107.72;;;11.84;59.38
40918;BME280;26644;50.248;19.032;2023-03-21T12:49:28;98121.03;;;11.95;58.97
40918;BME280;26644;50.248;19.032;2023-03-21T12:52:42;98121.56;;;11.98;59.29
40918;BME280;26644;50.248;19.032;2023-03-21T12:55:52;98116.63;;;11.94;59.35
40918;BME280;26644;50.248;19.032;2023-03-21T12:59:14;98098.97;;;11.76;60.02
40918;BME280;26644;50.248;19.032;2023-03-21T13:02:32;98104.72;;;11.80;59.78
40918;BME280;26644;50.248;19.032;2023-03-21T13:05:47;98094.38;;;11.72;60.68
40918;BME280;26644;50.248;19.032;2023-03-21T13:09:04;98102.28;;;11.78;61.23
40918;BME280;26644;50.248;19.032;2023-03-21T13:12:39;98101.44;;;11.78;61.54
40918;BME280;26644;50.248;19.032;2023-03-21T13:15:58;98100.66;;;11.97;61.74
40918;BME280;26644;50.248;19.032;2023-03-21T13:19:22;98101.25;;;12.13;60.73
40918;BME280;26644;50.248;19.032;2023-03-21T13:22:32;98103.44;;;12.16;59.82
40918;BME280;26644;50.248;19.032;2023-03-21T13:25:43;98100.16;;;12.14;60.03
40918;BME280;26644;50.248;19.032;2023-03-21T13:28:51;98097.03;;;12.01;60.12
40918;BME280;26644;50.248;19.032;2023-03-21T13:32:07;98101.50;;;11.97;60.19
40918;BME280;26644;50.248;19.032;2023-03-21T13:35:23;98101.50;;;11.97;60.64
40918;BME280;26644;50.248;19.032;2023-03-21T13:38:38;98098.75;;;11.97;61.13
40918;BME280;26644;50.248;19.032;2023-03-21T13:41:47;98106.09;;;12.02;61.98
40918;BME280;26644;50.248;19.032;2023-03-21T13:44:56;98100.53;;;12.07;61.84
40918;BME280;26644;50.248;19.032;2023-03-21T13:48:05;98076.44;;;11.99;61.35
40918;BME280;26644;50.248;19.032;2023-03-21T13:51:50;98099.09;;;12.28;61.54
40918;BME280;26644;50.248;19.032;2023-03-21T13:54:56;98090.25;;;12.32;60.99
40918;BME280;26644;50.248;19.032;2023-03-21T13:58:21;98078.41;;;12.31;60.27
40918;BME280;26644;50.248;19.032;2023-03-21T14:01:33;98096.09;;;12.44;60.13
40918;BME280;26644;50.248;19.032;2023-03-21T14:04:42;98086.81;;;12.40;60.08
40918;BME280;26644;50.248;19.032;2023-03-21T14:07:55;98078.94;;;12.33;60.32
40918;BME280;26644;50.248;19.032;2023-03-21T14:11:12;98065.47;;;12.32;60.22
40918;BME280;26644;50.248;19.032;2023-03-21T14:14:21;98081.84;;;12.42;60.74
40918;BME280;26644;50.248;19.032;2023-03-21T14:17:31;98080.94;;;12.47;60.32
40918;BME280;26644;50.248;19.032;2023-03-21T14:20:37;98075.81;;;12.40;59.75
40918;BME280;26644;50.248;19.032;2023-03-21T14:23:45;98071.50;;;12.34;59.76
40918;BME280;26644;50.248;19.032;2023-03-21T14:26:53;98073.84;;;12.40;60.16
40918;BME280;26644;50.248;19.032;2023-03-21T14:30:01;98068.88;;;12.42;59.82
40918;BME280;26644;50.248;19.032;2023-03-21T14:33:16;98080.22;;;12.55;59.92
40918;BME280;26644;50.248;19.032;2023-03-21T14:36:28;98072.19;;;12.58;59.73
40918;BME280;26644;50.248;19.032;2023-03-21T14:39:38;98067.38;;;12.50;59.50
40918;BME280;26644;50.248;19.032;2023-03-21T14:42:46;98067.78;;;12.43;58.39
40918;BME280;26644;50.248;19.032;2023-03-21T14:45:55;98063.41;;;12.23;58.68
40918;BME280;26644;50.248;19.032;2023-03-21T14:49:11;98071.06;;;12.07;60.07
40918;BME280;26644;50.248;19.032;2023-03-21T14:52:22;98065.13;;;12.00;60.39
40918;BME280;26644;50.248;19.032;2023-03-21T14:55:31;98065.47;;;11.93;61.03
40918;BME280;26644;50.248;19.032;2023-03-21T14:58:39;98071.84;;;11.89;61.53
40918;BME280;26644;50.248;19.032;2023-03-21T15:01:50;98066.66;;;11.87;61.89
40918;BME280;26644;50.248;19.032;2023-03-21T15:05:06;98064.19;;;11.67;62.15
40918;BME280;26644;50.248;19.032;2023-03-21T15:08:17;98064.50;;;11.65;62.32
40918;BME280;26644;50.248;19.032;2023-03-21T15:11:32;98069.53;;;11.58;62.24
40918;BME280;26644;50.248;19.032;2023-03-21T15:14:40;98066.47;;;11.59;62.43
40918;BME280;26644;50.248;19.032;2023-03-21T15:17:45;98061.28;;;11.58;62.54
40918;BME280;26644;50.248;19.032;2023-03-21T15:20:57;98062.63;;;11.60;62.51
40918;BME280;26644;50.248;19.032;2023-03-21T15:24:12;98065.38;;;11.60;62.74
40918;BME280;26644;50.248;19.032;2023-03-21T15:27:24;98055.28;;;11.56;62.16
40918;BME280;26644;50.248;19.032;2023-03-21T15:30:31;98057.97;;;11.61;61.88
40918;BME280;26644;50.248;19.032;2023-03-21T15:33:37;98053.88;;;11.58;62.10
40918;BME280;26644;50.248;19.032;2023-03-21T15:36:45;98051.38;;;11.57;62.27
40918;BME280;26644;50.248;19.032;2023-03-21T15:40:06;98050.59;;;11.56;62.66
40918;BME280;26644;50.248;19.032;2023-03-21T15:43:23;98052.59;;;11.51;61.51
40918;BME280;26644;50.248;19.032;2023-03-21T15:46:39;98046.91;;;11.42;62.39
40918;BME280;26644;50.248;19.032;2023-03-21T15:49:52;98047.81;;;11.37;62.86
40918;BME280;26644;50.248;19.032;2023-03-21T15:53:07;98044.81;;;11.34;63.19
40918;BME280;26644;50.248;19.032;2023-03-21T15:56:17;98045.94;;;11.33;62.51
40918;BME280;26644;50.248;19.032;2023-03-21T15:59:30;98043.78;;;11.30;62.60
40918;BME280;26644;50.248;19.032;2023-03-21T16:02:41;98032.31;;;11.22;62.67
40918;BME280;26644;50.248;19.032;2023-03-21T16:06:05;98025.78;;;11.18;62.53
40918;BME280;26644;50.248;19.032;2023-03-21T16:09:19;98042.78;;;11.20;63.10
40918;BME280;26644;50.248;19.032;2023-03-21T16:12:26;98041.97;;;11.20;63.03
40918;BME280;26644;50.248;19.032;2023-03-21T16:15:33;98040.56;;;11.22;62.97
40918;BME280;26644;50.248;19.032;2023-03-21T16:18:39;98046.59;;;11.24;62.81
40918;BME280;26644;50.248;19.032;2023-03-21T16:21:44;98041.97;;;11.20;63.01
40918;BME280;26644;50.248;19.032;2023-03-21T16:24:50;98049.94;;;11.21;62.69
40918;BME280;26644;50.248;19.032;2023-03-21T16:27:54;98054.66;;;11.16;62.50
40918;BME280;26644;50.248;19.032;2023-03-21T16:31:03;98049.44;;;11.14;62.71
40918;BME280;26644;50.248;19.032;2023-03-21T16:34:09;98049.44;;;11.14;62.90
40918;BME280;26644;50.248;19.032;2023-03-21T16:37:14;98051.91;;;11.16;62.62
40918;BME280;26644;50.248;19.032;2023-03-21T16:40:26;98069.16;;;11.21;62.32
40918;BME280;26644;50.248;19.032;2023-03-21T16:43:34;98050.75;;;11.22;62.49
40918;BME280;26644;50.248;19.032;2023-03-21T16:46:46;98065.94;;;11.14;62.38
40918;BME280;26644;50.248;19.032;2023-03-21T16:49:52;98062.88;;;11.16;62.44
40918;BME280;26644;50.248;19.032;2023-03-21T16:52:57;98059.09;;;11.11;62.66
40918;BME280;26644;50.248;19.032;2023-03-21T16:56:04;98064.03;;;11.15;62.72